Callaway, Virginia
Current Conditions -  °F | °C
As of 10:54 PM on Sunday 23 Nov 2014 (Local Time) from KROA Reporting Station
Light Rain Light Rain  
Wind Chill: 42°   Ceiling: 200
Heat Index: 45°   Visibility: 7mi
Dew Point: 43°   Wind: 6mph
Humidity: 93%   Direction: 260°W
Pressure: 29.77"   Gusts: NA
Location:  37.01°N, 80.05°W
Report Text: KROA 240354Z 26005KT 7SM -RA BKN002 OVC005 07/06 A2977 RMK AO2 SLP082 P0017 T00720061
Loading
Personal Weather Stations






























Interactive Weather Map New forecast layout! Learn more

10-Day Weather Forecast

Advertisements
Track Severe Weather on mobile